Weather at Lakeway Regional Hospital Heliport

Public forecast

Using degrees Fahrenheit for public forecast. Weather courtesy of forecast.io.

Closest aviation weather report (METAR) to Lakeway Regional Hospital Heliport

Closest report is Moore Murrell Airport, 4.2 nm (7.8 km) WSW. Retrieved 2021/06/13 11:35 UTC (22 minutes ago):

KMOR 131135Z AUTO 00000KT 7SM CLR 21/20 A2993 RMK A01

Closest aviation forecast (TAF) to Lakeway Regional Hospital Heliport

Closest forecast is McGhee Tyson Airport, 41.5 nm (76.9 km) SW. Retrieved 2021/06/13 06:27 UTC (5 hours ago):

TAF KTYS 130524Z 1306/1406 VRB03KT P6SM SKC FM131000 00000KT 4SM BR SCT010 FM131400 00000KT P6SM SCT250 PROB30 1402/1405 6SM TSRA BR BKN050CB